sensor_id;sensor_type;location;lat;lon;timestamp;pressure;altitude;pressure_sealevel;temperature;humidity
40245;BME280;25963;42.694;23.600;2023-02-15T00:01:41;96412.13;;;-1.14;100.00
40245;BME280;25963;42.694;23.600;2023-02-15T00:04:07;96400.03;;;-1.13;100.00
40245;BME280;25963;42.694;23.600;2023-02-15T00:06:33;96403.69;;;-1.16;100.00
40245;BME280;25963;42.694;23.600;2023-02-15T00:08:59;96399.19;;;-1.14;100.00
40245;BME280;25963;42.694;23.600;2023-02-15T00:11:25;96398.25;;;-1.13;100.00
40245;BME280;25963;42.694;23.600;2023-02-15T00:14:13;96403.22;;;-1.10;100.00
40245;BME280;25963;42.694;23.600;2023-02-15T00:16:40;96405.09;;;-1.12;100.00
40245;BME280;25963;42.694;23.600;2023-02-15T00:19:06;96415.47;;;-1.01;100.00
40245;BME280;25963;42.694;23.600;2023-02-15T00:21:33;96406.88;;;-1.01;100.00
40245;BME280;25963;42.694;23.600;2023-02-15T00:24:01;96420.66;;;-1.01;100.00
40245;BME280;25963;42.694;23.600;2023-02-15T00:26:27;96416.63;;;-1.05;100.00
40245;BME280;25963;42.694;23.600;2023-02-15T00:28:53;96413.56;;;-1.10;100.00
40245;BME280;25963;42.694;23.600;2023-02-15T00:31:19;96417.94;;;-1.10;100.00
40245;BME280;25963;42.694;23.600;2023-02-15T00:33:45;96419.22;;;-1.16;100.00
40245;BME280;25963;42.694;23.600;2023-02-15T00:36:11;96415.22;;;-1.09;100.00
40245;BME280;25963;42.694;23.600;2023-02-15T00:38:37;96404.38;;;-1.14;100.00
40245;BME280;25963;42.694;23.600;2023-02-15T00:41:04;96414.63;;;-1.12;100.00
40245;BME280;25963;42.694;23.600;2023-02-15T00:43:31;96413.91;;;-1.15;100.00
40245;BME280;25963;42.694;23.600;2023-02-15T00:45:58;96402.72;;;-1.15;100.00
40245;BME280;25963;42.694;23.600;2023-02-15T00:48:24;96412.97;;;-1.13;100.00
40245;BME280;25963;42.694;23.600;2023-02-15T00:50:51;96412.25;;;-1.16;100.00
40245;BME280;25963;42.694;23.600;2023-02-15T00:53:17;96407.41;;;-1.20;100.00
40245;BME280;25963;42.694;23.600;2023-02-15T00:55:42;96404.13;;;-1.22;100.00
40245;BME280;25963;42.694;23.600;2023-02-15T00:58:09;96404.81;;;-1.20;100.00
40245;BME280;25963;42.694;23.600;2023-02-15T01:00:35;96402.47;;;-1.23;100.00
40245;BME280;25963;42.694;23.600;2023-02-15T01:03:01;96399.63;;;-1.20;100.00
40245;BME280;25963;42.694;23.600;2023-02-15T01:05:27;96400.94;;;-1.15;100.00
40245;BME280;25963;42.694;23.600;2023-02-15T01:07:54;96403.91;;;-1.19;100.00
40245;BME280;25963;42.694;23.600;2023-02-15T01:10:20;96403.69;;;-1.16;100.00
40245;BME280;25963;42.694;23.600;2023-02-15T01:12:46;96382.66;;;-1.35;100.00
40245;BME280;25963;42.694;23.600;2023-02-15T01:15:11;96401.06;;;-1.27;100.00
40245;BME280;25963;42.694;23.600;2023-02-15T01:17:37;96409.09;;;-1.19;100.00
40245;BME280;25963;42.694;23.600;2023-02-15T01:20:02;96405.41;;;-1.28;100.00
40245;BME280;25963;42.694;23.600;2023-02-15T01:22:28;96401.28;;;-1.30;100.00
40245;BME280;25963;42.694;23.600;2023-02-15T01:24:53;96396.56;;;-1.36;100.00
40245;BME280;25963;42.694;23.600;2023-02-15T01:27:19;96390.25;;;-1.56;100.00
40245;BME280;25963;42.694;23.600;2023-02-15T01:29:44;96395.56;;;-1.58;100.00
40245;BME280;25963;42.694;23.600;2023-02-15T01:32:10;96390.59;;;-1.61;100.00
40245;BME280;25963;42.694;23.600;2023-02-15T01:34:35;96396.47;;;-1.59;100.00
40245;BME280;25963;42.694;23.600;2023-02-15T01:37:01;96399.91;;;-1.47;100.00
40245;BME280;25963;42.694;23.600;2023-02-15T01:39:26;96393.56;;;-1.54;100.00
40245;BME280;25963;42.694;23.600;2023-02-15T01:41:52;96386.34;;;-1.62;100.00
40245;BME280;25963;42.694;23.600;2023-02-15T01:44:49;96391.53;;;-1.62;100.00
40245;BME280;25963;42.694;23.600;2023-02-15T01:47:31;96382.13;;;-1.63;100.00
40245;BME280;25963;42.694;23.600;2023-02-15T01:50:22;96384.44;;;-1.71;100.00
40245;BME280;25963;42.694;23.600;2023-02-15T01:53:01;96395.38;;;-1.68;100.00
40245;BME280;25963;42.694;23.600;2023-02-15T01:55:33;96371.34;;;-1.81;100.00
40245;BME280;25963;42.694;23.600;2023-02-15T01:58:00;96377.56;;;-1.84;100.00
40245;BME280;25963;42.694;23.600;2023-02-15T02:00:26;96379.94;;;-1.80;100.00
40245;BME280;25963;42.694;23.600;2023-02-15T02:02:54;96388.28;;;-1.77;100.00
40245;BME280;25963;42.694;23.600;2023-02-15T02:05:20;96379.00;;;-1.79;100.00
40245;BME280;25963;42.694;23.600;2023-02-15T02:07:46;96384.44;;;-1.71;100.00
40245;BME280;25963;42.694;23.600;2023-02-15T02:10:16;96382.13;;;-1.63;100.00
40245;BME280;25963;42.694;23.600;2023-02-15T02:12:44;96366.72;;;-1.89;100.00
40245;BME280;25963;42.694;23.600;2023-02-15T02:15:10;96380.88;;;-1.81;100.00
40245;BME280;25963;42.694;23.600;2023-02-15T02:18:09;96383.34;;;-1.80;100.00
40245;BME280;25963;42.694;23.600;2023-02-15T02:23:40;96390.78;;;-1.75;100.00
40245;BME280;25963;42.694;23.600;2023-02-15T02:37:48;96378.56;;;-1.73;100.00
40245;BME280;25963;42.694;23.600;2023-02-15T02:43:10;96392.47;;;-1.63;100.00
40245;BME280;25963;42.694;23.600;2023-02-15T02:45:45;96394.56;;;-1.68;100.00
40245;BME280;25963;42.694;23.600;2023-02-15T02:48:16;96396.25;;;-1.56;100.00
40245;BME280;25963;42.694;23.600;2023-02-15T02:50:44;96389.66;;;-1.60;100.00
40245;BME280;25963;42.694;23.600;2023-02-15T02:53:10;96397.72;;;-1.65;100.00
40245;BME280;25963;42.694;23.600;2023-02-15T02:56:03;96399.91;;;-1.58;100.00
40245;BME280;25963;42.694;23.600;2023-02-15T02:58:41;96401.06;;;-1.63;100.00
40245;BME280;25963;42.694;23.600;2023-02-15T03:06:15;96392.16;;;-1.58;100.00
40245;BME280;25963;42.694;23.600;2023-02-15T03:08:49;96403.09;;;-1.55;100.00
40245;BME280;25963;42.694;23.600;2023-02-15T03:11:16;96398.59;;;-1.64;100.00
40245;BME280;25963;42.694;23.600;2023-02-15T03:13:43;96409.41;;;-1.59;100.00
40245;BME280;25963;42.694;23.600;2023-02-15T03:16:10;96415.22;;;-1.55;100.00
40245;BME280;25963;42.694;23.600;2023-02-15T03:19:02;96413.44;;;-1.55;100.00
40245;BME280;25963;42.694;23.600;2023-02-15T03:21:39;96424.03;;;-1.58;100.00
40245;BME280;25963;42.694;23.600;2023-02-15T03:24:13;96415.44;;;-1.58;100.00
40245;BME280;25963;42.694;23.600;2023-02-15T03:26:42;96417.41;;;-1.62;100.00
40245;BME280;25963;42.694;23.600;2023-02-15T03:29:11;96415.22;;;-1.55;100.00
40245;BME280;25963;42.694;23.600;2023-02-15T03:31:40;96411.13;;;-1.71;100.00
40245;BME280;25963;42.694;23.600;2023-02-15T03:34:10;96412.66;;;-1.68;100.00
40245;BME280;25963;42.694;23.600;2023-02-15T03:42:17;96407.50;;;-1.68;100.00
40245;BME280;25963;42.694;23.600;2023-02-15T03:45:06;96416.91;;;-1.67;100.00
40245;BME280;25963;42.694;23.600;2023-02-15T03:47:39;96423.59;;;-1.65;100.00
40245;BME280;25963;42.694;23.600;2023-02-15T03:50:11;96417.63;;;-1.65;100.00
40245;BME280;25963;42.694;23.600;2023-02-15T03:52:58;96418.78;;;-1.69;100.00
40245;BME280;25963;42.694;23.600;2023-02-15T03:55:25;96412.44;;;-1.65;100.00
40245;BME280;25963;42.694;23.600;2023-02-15T03:57:52;96414.44;;;-1.69;100.00
40245;BME280;25963;42.694;23.600;2023-02-15T04:00:39;96435.03;;;-1.67;100.00
40245;BME280;25963;42.694;23.600;2023-02-15T04:03:36;96435.03;;;-1.67;100.00
40245;BME280;25963;42.694;23.600;2023-02-15T04:06:04;96436.44;;;-1.63;100.00
40245;BME280;25963;42.694;23.600;2023-02-15T04:08:29;96432.09;;;-1.63;100.00
40245;BME280;25963;42.694;23.600;2023-02-15T04:11:14;96439.25;;;-1.66;100.00
40245;BME280;25963;42.694;23.600;2023-02-15T04:13:39;96418.22;;;-1.86;100.00
40245;BME280;25963;42.694;23.600;2023-02-15T04:16:05;96444.16;;;-1.74;100.00
40245;BME280;25963;42.694;23.600;2023-02-15T04:18:31;96458.78;;;-1.86;100.00
40245;BME280;25963;42.694;23.600;2023-02-15T04:21:15;96450.66;;;-1.93;100.00
40245;BME280;25963;42.694;23.600;2023-02-15T04:23:59;96443.91;;;-1.95;100.00
40245;BME280;25963;42.694;23.600;2023-02-15T04:26:43;96456.84;;;-1.95;100.00
40245;BME280;25963;42.694;23.600;2023-02-15T04:29:09;96454.38;;;-1.97;100.00
40245;BME280;25963;42.694;23.600;2023-02-15T04:31:34;96452.41;;;-1.93;100.00
40245;BME280;25963;42.694;23.600;2023-02-15T04:34:00;96461.94;;;-1.94;100.00
40245;BME280;25963;42.694;23.600;2023-02-15T04:36:25;96455.72;;;-1.91;100.00
40245;BME280;25963;42.694;23.600;2023-02-15T04:38:51;96459.13;;;-1.91;100.00
40245;BME280;25963;42.694;23.600;2023-02-15T04:41:16;96459.34;;;-1.94;100.00
40245;BME280;25963;42.694;23.600;2023-02-15T04:43:41;96452.56;;;-1.84;100.00
40245;BME280;25963;42.694;23.600;2023-02-15T04:46:07;96463.97;;;-1.86;100.00
40245;BME280;25963;42.694;23.600;2023-02-15T04:48:32;96462.81;;;-1.82;100.00
40245;BME280;25963;42.694;23.600;2023-02-15T04:50:58;96457.03;;;-1.86;100.00
40245;BME280;25963;42.694;23.600;2023-02-15T04:53:23;96465.28;;;-1.80;100.00
40245;BME280;25963;42.694;23.600;2023-02-15T04:55:48;96465.50;;;-1.84;100.00
40245;BME280;25963;42.694;23.600;2023-02-15T04:58:14;96476.28;;;-1.90;100.00
40245;BME280;25963;42.694;23.600;2023-02-15T05:00:39;96468.59;;;-1.78;100.00
40245;BME280;25963;42.694;23.600;2023-02-15T05:03:04;96470.47;;;-1.80;100.00
40245;BME280;25963;42.694;23.600;2023-02-15T05:05:30;96476.03;;;-1.74;100.00
40245;BME280;25963;42.694;23.600;2023-02-15T05:07:55;96489.09;;;-2.12;100.00
40245;BME280;25963;42.694;23.600;2023-02-15T05:10:21;96475.00;;;-2.08;100.00
40245;BME280;25963;42.694;23.600;2023-02-15T05:12:46;96486.28;;;-2.09;100.00
40245;BME280;25963;42.694;23.600;2023-02-15T05:15:12;96486.97;;;-2.07;100.00
40245;BME280;25963;42.694;23.600;2023-02-15T05:17:37;96488.69;;;-2.32;100.00
40245;BME280;25963;42.694;23.600;2023-02-15T05:20:03;96492.69;;;-2.27;100.00
40245;BME280;25963;42.694;23.600;2023-02-15T05:22:29;96490.97;;;-2.40;100.00
40245;BME280;25963;42.694;23.600;2023-02-15T05:24:54;96494.59;;;-2.30;100.00
40245;BME280;25963;42.694;23.600;2023-02-15T05:27:38;96501.41;;;-2.28;100.00
40245;BME280;25963;42.694;23.600;2023-02-15T05:30:22;96510.31;;;-2.33;100.00
40245;BME280;25963;42.694;23.600;2023-02-15T05:32:47;96503.25;;;-2.31;100.00
40245;BME280;25963;42.694;23.600;2023-02-15T05:35:15;96503.97;;;-2.28;100.00
40245;BME280;25963;42.694;23.600;2023-02-15T05:37:41;96507.41;;;-2.41;100.00
40245;BME280;25963;42.694;23.600;2023-02-15T05:40:07;96517.31;;;-2.35;100.00
40245;BME280;25963;42.694;23.600;2023-02-15T05:42:32;96518.56;;;-2.40;100.00
40245;BME280;25963;42.694;23.600;2023-02-15T05:44:58;96517.22;;;-2.46;100.00
40245;BME280;25963;42.694;23.600;2023-02-15T05:47:23;96519.19;;;-2.37;100.00
40245;BME280;25963;42.694;23.600;2023-02-15T05:49:49;96529.94;;;-2.30;100.00
40245;BME280;25963;42.694;23.600;2023-02-15T05:52:14;96534.69;;;-2.37;100.00
40245;BME280;25963;42.694;23.600;2023-02-15T05:54:39;96537.38;;;-2.25;100.00
40245;BME280;25963;42.694;23.600;2023-02-15T05:57:05;96531.78;;;-2.19;100.00
40245;BME280;25963;42.694;23.600;2023-02-15T05:59:30;96519.69;;;-2.06;100.00
40245;BME280;25963;42.694;23.600;2023-02-15T06:01:55;96514.69;;;-1.96;100.00
40245;BME280;25963;42.694;23.600;2023-02-15T06:04:21;96518.19;;;-1.85;100.00
40245;BME280;25963;42.694;23.600;2023-02-15T06:06:46;96525.69;;;-1.69;100.00
40245;BME280;25963;42.694;23.600;2023-02-15T06:09:12;96523.69;;;-1.52;100.00
40245;BME280;25963;42.694;23.600;2023-02-15T06:11:38;96514.81;;;-1.37;100.00
40245;BME280;25963;42.694;23.600;2023-02-15T06:14:03;96521.53;;;-1.10;100.00
40245;BME280;25963;42.694;23.600;2023-02-15T06:16:29;96520.66;;;-0.76;100.00
40245;BME280;25963;42.694;23.600;2023-02-15T06:18:54;96532.41;;;-0.48;100.00
40245;BME280;25963;42.694;23.600;2023-02-15T06:21:20;96534.06;;;-0.35;100.00
40245;BME280;25963;42.694;23.600;2023-02-15T06:23:45;96533.38;;;-0.26;100.00
40245;BME280;25963;42.694;23.600;2023-02-15T06:26:11;96530.91;;;-0.16;100.00
40245;BME280;25963;42.694;23.600;2023-02-15T06:28:36;96539.97;;;-0.22;100.00
40245;BME280;25963;42.694;23.600;2023-02-15T06:31:03;96536.81;;;-0.14;100.00
40245;BME280;25963;42.694;23.600;2023-02-15T06:33:28;96534.31;;;-0.05;100.00
40245;BME280;25963;42.694;23.600;2023-02-15T06:35:55;96519.34;;;0.10;100.00
40245;BME280;25963;42.694;23.600;2023-02-15T06:38:21;96521.78;;;0.34;100.00
40245;BME280;25963;42.694;23.600;2023-02-15T06:40:47;96520.31;;;0.53;100.00
40245;BME280;25963;42.694;23.600;2023-02-15T06:43:12;96522.91;;;0.53;100.00
40245;BME280;25963;42.694;23.600;2023-02-15T06:45:38;96519.97;;;0.57;100.00
40245;BME280;25963;42.694;23.600;2023-02-15T06:48:03;96524.03;;;0.71;100.00
40245;BME280;25963;42.694;23.600;2023-02-15T06:50:32;96526.38;;;0.85;100.00
40245;BME280;25963;42.694;23.600;2023-02-15T06:52:58;96529.00;;;1.06;100.00
40245;BME280;25963;42.694;23.600;2023-02-15T06:55:23;96526.34;;;1.18;100.00
40245;BME280;25963;42.694;23.600;2023-02-15T06:57:49;96529.91;;;1.37;100.00
40245;BME280;25963;42.694;23.600;2023-02-15T07:00:14;96523.81;;;1.48;100.00
40245;BME280;25963;42.694;23.600;2023-02-15T07:02:40;96536.44;;;1.53;100.00
40245;BME280;25963;42.694;23.600;2023-02-15T07:05:05;96527.72;;;1.64;100.00
40245;BME280;25963;42.694;23.600;2023-02-15T07:07:31;96528.75;;;1.72;100.00
40245;BME280;25963;42.694;23.600;2023-02-15T07:09:56;96528.56;;;1.64;100.00
40245;BME280;25963;42.694;23.600;2023-02-15T07:12:21;96532.69;;;1.46;100.00
40245;BME280;25963;42.694;23.600;2023-02-15T07:15:06;96526.47;;;1.58;100.00
40245;BME280;25963;42.694;23.600;2023-02-15T07:17:33;96529.66;;;1.62;100.00
40245;BME280;25963;42.694;23.600;2023-02-15T07:19:58;96526.78;;;1.86;100.00
40245;BME280;25963;42.694;23.600;2023-02-15T07:22:24;96522.41;;;1.96;100.00
40245;BME280;25963;42.694;23.600;2023-02-15T07:24:49;96524.25;;;2.05;100.00
40245;BME280;25963;42.694;23.600;2023-02-15T07:27:15;96524.00;;;2.18;100.00
40245;BME280;25963;42.694;23.600;2023-02-15T07:29:40;96515.56;;;2.35;100.00
40245;BME280;25963;42.694;23.600;2023-02-15T07:32:06;96520.16;;;2.62;100.00
40245;BME280;25963;42.694;23.600;2023-02-15T07:34:31;96525.94;;;2.95;100.00
40245;BME280;25963;42.694;23.600;2023-02-15T07:36:57;96512.06;;;2.75;100.00
40245;BME280;25963;42.694;23.600;2023-02-15T07:39:22;96524.03;;;2.87;100.00
40245;BME280;25963;42.694;23.600;2023-02-15T07:41:48;96524.31;;;2.94;100.00
40245;BME280;25963;42.694;23.600;2023-02-15T07:44:14;96517.97;;;3.26;100.00
40245;BME280;25963;42.694;23.600;2023-02-15T07:46:40;96526.63;;;3.36;100.00
40245;BME280;25963;42.694;23.600;2023-02-15T07:49:05;96535.53;;;3.43;100.00
40245;BME280;25963;42.694;23.600;2023-02-15T07:51:31;96526.78;;;3.44;100.00
40245;BME280;25963;42.694;23.600;2023-02-15T07:53:56;96534.97;;;3.59;100.00
40245;BME280;25963;42.694;23.600;2023-02-15T07:56:22;96537.16;;;3.63;100.00
40245;BME280;25963;42.694;23.600;2023-02-15T07:58:47;96533.56;;;3.74;100.00
40245;BME280;25963;42.694;23.600;2023-02-15T08:01:20;96529.09;;;3.94;100.00
40245;BME280;25963;42.694;23.600;2023-02-15T08:03:46;96524.19;;;4.19;100.00
40245;BME280;25963;42.694;23.600;2023-02-15T08:06:12;96524.25;;;4.37;100.00
40245;BME280;25963;42.694;23.600;2023-02-15T08:08:38;96527.66;;;4.19;100.00
40245;BME280;25963;42.694;23.600;2023-02-15T08:11:13;96535.72;;;3.98;100.00
40245;BME280;25963;42.694;23.600;2023-02-15T08:14:13;96529.41;;;4.19;100.00
40245;BME280;25963;42.694;23.600;2023-02-15T08:16:50;96515.88;;;4.05;100.00
40245;BME280;25963;42.694;23.600;2023-02-15T08:22:00;96530.72;;;4.60;100.00
40245;BME280;25963;42.694;23.600;2023-02-15T08:24:29;96527.03;;;4.35;100.00
40245;BME280;25963;42.694;23.600;2023-02-15T08:26:55;96523.63;;;4.52;100.00
40245;BME280;25963;42.694;23.600;2023-02-15T08:29:23;96529.00;;;4.51;100.00
40245;BME280;25963;42.694;23.600;2023-02-15T08:31:52;96515.25;;;4.76;100.00
40245;BME280;25963;42.694;23.600;2023-02-15T08:34:19;96519.16;;;4.63;100.00
40245;BME280;25963;42.694;23.600;2023-02-15T08:36:45;96513.66;;;4.66;100.00
40245;BME280;25963;42.694;23.600;2023-02-15T08:39:11;96522.78;;;4.79;100.00
40245;BME280;25963;42.694;23.600;2023-02-15T08:41:38;96509.19;;;4.76;100.00
40245;BME280;25963;42.694;23.600;2023-02-15T08:44:06;96518.53;;;4.96;100.00
40245;BME280;25963;42.694;23.600;2023-02-15T08:46:34;96524.44;;;4.98;100.00
40245;BME280;25963;42.694;23.600;2023-02-15T08:49:00;96526.44;;;5.04;100.00
40245;BME280;25963;42.694;23.600;2023-02-15T08:51:28;96521.72;;;5.08;100.00
40245;BME280;25963;42.694;23.600;2023-02-15T08:53:57;96528.66;;;5.35;100.00
40245;BME280;25963;42.694;23.600;2023-02-15T08:56:27;96528.75;;;5.43;100.00
40245;BME280;25963;42.694;23.600;2023-02-15T08:58:54;96522.63;;;5.35;100.00
40245;BME280;25963;42.694;23.600;2023-02-15T09:01:23;96527.34;;;5.31;100.00
40245;BME280;25963;42.694;23.600;2023-02-15T09:03:52;96520.28;;;5.49;100.00
40245;BME280;25963;42.694;23.600;2023-02-15T09:06:20;96536.06;;;5.58;100.00
40245;BME280;25963;42.694;23.600;2023-02-15T09:08:46;96519.34;;;5.51;100.00
40245;BME280;25963;42.694;23.600;2023-02-15T09:11:14;96523.72;;;5.50;100.00
40245;BME280;25963;42.694;23.600;2023-02-15T09:13:47;96517.88;;;5.82;100.00
40245;BME280;25963;42.694;23.600;2023-02-15T09:16:13;96514.25;;;5.75;100.00
40245;BME280;25963;42.694;23.600;2023-02-15T09:18:39;96528.41;;;6.08;100.00
40245;BME280;25963;42.694;23.600;2023-02-15T09:21:09;96528.63;;;6.23;100.00
40245;BME280;25963;42.694;23.600;2023-02-15T09:23:35;96526.03;;;5.97;100.00
40245;BME280;25963;42.694;23.600;2023-02-15T09:26:03;96513.53;;;5.91;100.00
40245;BME280;25963;42.694;23.600;2023-02-15T09:28:28;96516.59;;;6.04;100.00
40245;BME280;25963;42.694;23.600;2023-02-15T09:30:57;96525.44;;;6.46;100.00
40245;BME280;25963;42.694;23.600;2023-02-15T09:33:22;96515.84;;;6.20;98.73
40245;BME280;25963;42.694;23.600;2023-02-15T09:35:50;96503.66;;;6.45;100.00
40245;BME280;25963;42.694;23.600;2023-02-15T09:38:15;96519.50;;;6.35;100.00
40245;BME280;25963;42.694;23.600;2023-02-15T09:40:50;96517.00;;;6.68;100.00
40245;BME280;25963;42.694;23.600;2023-02-15T09:43:33;96516.13;;;7.18;100.00
40245;BME280;25963;42.694;23.600;2023-02-15T09:46:19;96519.09;;;7.48;99.82
40245;BME280;25963;42.694;23.600;2023-02-15T09:48:53;96515.28;;;7.09;97.06
40245;BME280;25963;42.694;23.600;2023-02-15T09:56:50;96507.56;;;7.08;92.27
40245;BME280;25963;42.694;23.600;2023-02-15T10:04:50;96498.41;;;7.28;93.95
40245;BME280;25963;42.694;23.600;2023-02-15T10:07:53;96498.56;;;7.27;88.04
40245;BME280;25963;42.694;23.600;2023-02-15T10:10:43;96500.38;;;7.18;89.96
40245;BME280;25963;42.694;23.600;2023-02-15T10:26:20;96482.94;;;8.30;89.23
40245;BME280;25963;42.694;23.600;2023-02-15T10:34:38;96473.59;;;8.19;94.45
40245;BME280;25963;42.694;23.600;2023-02-15T10:43:04;96468.63;;;7.85;85.28
40245;BME280;25963;42.694;23.600;2023-02-15T10:48:33;96452.97;;;7.03;87.21
40245;BME280;25963;42.694;23.600;2023-02-15T10:51:03;96463.28;;;7.38;89.54
40245;BME280;25963;42.694;23.600;2023-02-15T10:54:07;96459.84;;;7.45;88.60
40245;BME280;25963;42.694;23.600;2023-02-15T10:57:00;96450.91;;;7.87;91.76
40245;BME280;25963;42.694;23.600;2023-02-15T11:05:45;96455.25;;;8.11;87.01
40245;BME280;25963;42.694;23.600;2023-02-15T11:08:16;96449.56;;;8.31;84.77
40245;BME280;25963;42.694;23.600;2023-02-15T11:10:51;96449.59;;;8.22;84.71
40245;BME280;25963;42.694;23.600;2023-02-15T11:13:22;96446.38;;;8.12;84.80
40245;BME280;25963;42.694;23.600;2023-02-15T11:16:00;96454.34;;;7.88;87.09
40245;BME280;25963;42.694;23.600;2023-02-15T11:21:24;96454.66;;;7.93;89.13
40245;BME280;25963;42.694;23.600;2023-02-15T11:23:51;96447.72;;;8.08;87.30
40245;BME280;25963;42.694;23.600;2023-02-15T11:31:53;96425.91;;;8.39;88.27
40245;BME280;25963;42.694;23.600;2023-02-15T11:34:37;96429.00;;;8.34;86.60
40245;BME280;25963;42.694;23.600;2023-02-15T11:37:11;96428.53;;;8.39;84.87
40245;BME280;25963;42.694;23.600;2023-02-15T11:39:37;96432.75;;;8.48;82.72
40245;BME280;25963;42.694;23.600;2023-02-15T11:42:14;96429.56;;;8.61;87.00
40245;BME280;25963;42.694;23.600;2023-02-15T11:47:13;96413.22;;;8.74;86.06
40245;BME280;25963;42.694;23.600;2023-02-15T11:49:39;96420.19;;;8.58;81.68
40245;BME280;25963;42.694;23.600;2023-02-15T11:52:10;96420.97;;;8.44;81.86
40245;BME280;25963;42.694;23.600;2023-02-15T11:54:41;96428.31;;;8.09;84.59
40245;BME280;25963;42.694;23.600;2023-02-15T11:57:22;96415.13;;;8.26;87.10
40245;BME280;25963;42.694;23.600;2023-02-15T12:02:41;96410.13;;;8.39;83.48
40245;BME280;25963;42.694;23.600;2023-02-15T12:05:14;96409.13;;;8.40;81.01
40245;BME280;25963;42.694;23.600;2023-02-15T12:07:46;96406.34;;;8.33;82.77
40245;BME280;25963;42.694;23.600;2023-02-15T12:13:17;96389.47;;;8.59;87.51
40245;BME280;25963;42.694;23.600;2023-02-15T12:15:48;96395.81;;;8.64;83.19
40245;BME280;25963;42.694;23.600;2023-02-15T12:18:17;96385.53;;;8.55;83.44
40245;BME280;25963;42.694;23.600;2023-02-15T12:20:44;96379.31;;;8.56;84.78
40245;BME280;25963;42.694;23.600;2023-02-15T12:23:14;96384.97;;;8.44;84.49
40245;BME280;25963;42.694;23.600;2023-02-15T12:25:41;96381.53;;;8.44;86.92
40245;BME280;25963;42.694;23.600;2023-02-15T12:28:34;96384.16;;;8.36;86.35
40245;BME280;25963;42.694;23.600;2023-02-15T12:31:17;96383.03;;;8.38;84.13
40245;BME280;25963;42.694;23.600;2023-02-15T12:33:45;96391.03;;;8.45;84.03
40245;BME280;25963;42.694;23.600;2023-02-15T12:36:26;96378.88;;;8.44;84.47
40245;BME280;25963;42.694;23.600;2023-02-15T12:44:26;96374.22;;;8.54;85.70
40245;BME280;25963;42.694;23.600;2023-02-15T12:49:33;96377.28;;;8.35;82.62
40245;BME280;25963;42.694;23.600;2023-02-15T12:52:04;96370.09;;;8.29;84.41
40245;BME280;25963;42.694;23.600;2023-02-15T12:54:35;96369.59;;;8.56;84.83
40245;BME280;25963;42.694;23.600;2023-02-15T12:57:34;96369.88;;;8.61;82.88
40245;BME280;25963;42.694;23.600;2023-02-15T13:00:02;96366.66;;;8.51;82.95
40245;BME280;25963;42.694;23.600;2023-02-15T13:05:31;96376.44;;;8.34;81.37
40245;BME280;25963;42.694;23.600;2023-02-15T13:08:04;96374.22;;;8.54;79.70
40245;BME280;25963;42.694;23.600;2023-02-15T13:10:37;96359.09;;;8.56;80.37
40245;BME280;25963;42.694;23.600;2023-02-15T13:13:14;96361.63;;;8.64;78.04
40245;BME280;25963;42.694;23.600;2023-02-15T13:15:46;96353.22;;;8.69;74.43
40245;BME280;25963;42.694;23.600;2023-02-15T13:18:24;96349.59;;;8.70;71.98
40245;BME280;25963;42.694;23.600;2023-02-15T13:20:52;96348.66;;;8.86;73.05
40245;BME280;25963;42.694;23.600;2023-02-15T13:23:28;96365.63;;;8.60;72.39
40245;BME280;25963;42.694;23.600;2023-02-15T13:25:59;96358.50;;;8.69;72.68
40245;BME280;25963;42.694;23.600;2023-02-15T13:28:41;96357.44;;;8.24;73.44
40245;BME280;25963;42.694;23.600;2023-02-15T13:31:15;96357.56;;;8.31;74.51
40245;BME280;25963;42.694;23.600;2023-02-15T13:34:00;96352.75;;;8.65;74.63
40245;BME280;25963;42.694;23.600;2023-02-15T13:39:24;96358.19;;;8.64;73.43
40245;BME280;25963;42.694;23.600;2023-02-15T13:42:12;96358.69;;;8.67;71.09
40245;BME280;25963;42.694;23.600;2023-02-15T13:50:31;96358.34;;;8.85;69.20
40245;BME280;25963;42.694;23.600;2023-02-15T13:55:40;96365.88;;;8.74;71.11
40245;BME280;25963;42.694;23.600;2023-02-15T14:12:34;96380.41;;;8.30;71.67
40245;BME280;25963;42.694;23.600;2023-02-15T14:21:10;96381.88;;;8.33;71.25
40245;BME280;25963;42.694;23.600;2023-02-15T14:26:32;96391.88;;;8.06;72.51
40245;BME280;25963;42.694;23.600;2023-02-15T14:31:41;96386.91;;;7.72;74.76
40245;BME280;25963;42.694;23.600;2023-02-15T14:34:19;96396.78;;;7.53;74.96
40245;BME280;25963;42.694;23.600;2023-02-15T14:36:46;96394.69;;;7.57;75.54
40245;BME280;25963;42.694;23.600;2023-02-15T14:42:37;96397.31;;;7.49;75.12
40245;BME280;25963;42.694;23.600;2023-02-15T14:45:36;96402.59;;;7.32;76.62
40245;BME280;25963;42.694;23.600;2023-02-15T14:48:28;96399.47;;;7.37;76.94
40245;BME280;25963;42.694;23.600;2023-02-15T14:50:55;96398.31;;;7.23;77.44
40245;BME280;25963;42.694;23.600;2023-02-15T15:01:32;96399.31;;;6.81;79.98
40245;BME280;25963;42.694;23.600;2023-02-15T15:04:05;96396.72;;;6.73;79.82
40245;BME280;25963;42.694;23.600;2023-02-15T15:06:35;96401.78;;;6.58;80.71
40245;BME280;25963;42.694;23.600;2023-02-15T15:11:44;96397.31;;;6.43;81.99
40245;BME280;25963;42.694;23.600;2023-02-15T15:17:01;96401.84;;;6.08;83.25
40245;BME280;25963;42.694;23.600;2023-02-15T15:22:18;96395.56;;;6.01;84.95
40245;BME280;25963;42.694;23.600;2023-02-15T15:43:32;96412.78;;;5.43;87.13
40245;BME280;25963;42.694;23.600;2023-02-15T16:04:49;96423.59;;;4.15;94.08
40245;BME280;25963;42.694;23.600;2023-02-15T16:22:11;96441.50;;;3.82;95.56
40245;BME280;25963;42.694;23.600;2023-02-15T16:27:43;96449.25;;;3.64;95.35
40245;BME280;25963;42.694;23.600;2023-02-15T16:32:47;96443.44;;;3.33;97.18
40245;BME280;25963;42.694;23.600;2023-02-15T16:35:16;96445.13;;;3.14;98.92
40245;BME280;25963;42.694;23.600;2023-02-15T16:37:42;96448.03;;;3.11;98.97
40245;BME280;25963;42.694;23.600;2023-02-15T16:43:04;96446.50;;;2.89;100.00
40245;BME280;25963;42.694;23.600;2023-02-15T16:45:34;96454.34;;;2.80;100.00